Terminal Aerodrome Forecast
Issued by NWS

Home | Current Version | Previous Version | Text Only | Print | Product List | Glossary On
Versions: 1 2 3 4 5 6 7 8 9 10 11 12 13 14 15
000
FTUS42 KTBW 101700
TAFPGD
TAF
KPGD 101727Z 1018/1118 VRB05KT P6SM VCTS FEW025CB SCT035
     FM101900 32007KT P6SM VCTS SCT025CB BKN090
     FM110000 VRB03KT P6SM FEW030 SCT150 BKN250
     FM111600 13005KT P6SM VCTS SCT035CB BKN150=

USA.gov is the U.S. government's official web portal to all federal, state and local government web resources and services.